Dunning, North Dakota
Current Conditions -  °F | °C
As of 5:58 PM on Monday 20 Oct 2014 (Local Time) from KMIB Reporting Station
Clear Clear  
Wind Chill: 67°   Ceiling: Unl
Heat Index: 67°   Visibility: 10mi
Dew Point: 40°   Wind: 12mph
Humidity: 37%   Direction: 170°S
Pressure: 29.89"   Gusts: NA
Location:  48.7978°N, 101.326°W
Report Text: KMIB 202258Z AUTO 17010KT 10SM CLR 19/04 A2989 RMK AO2 SLP131 T01930044 CHINO RWY29 $
Loading
Personal Weather Stations






























Interactive Weather Map
Tropical Storm Tracking
New forecast layout! Learn more

10-Day Weather Forecast

Advertisements
Track Severe Weather on mobile